sensor_id;sensor_type;location;lat;lon;timestamp;pressure;altitude;pressure_sealevel;temperature
11424;BMP180;5768;51.476;7.210;2022-09-04T00:04:29;100177.00;;;21.10
11424;BMP180;5768;51.476;7.210;2022-09-04T00:09:45;100180.00;;;21.10
11424;BMP180;5768;51.476;7.210;2022-09-04T00:15:01;100176.00;;;21.00
11424;BMP180;5768;51.476;7.210;2022-09-04T00:20:10;100186.00;;;21.00
11424;BMP180;5768;51.476;7.210;2022-09-04T00:25:19;100181.00;;;21.00
11424;BMP180;5768;51.476;7.210;2022-09-04T00:30:25;100188.00;;;20.90
11424;BMP180;5768;51.476;7.210;2022-09-04T00:35:30;100192.00;;;20.90
11424;BMP180;5768;51.476;7.210;2022-09-04T00:40:38;100188.00;;;20.90
11424;BMP180;5768;51.476;7.210;2022-09-04T00:46:38;100194.00;;;20.90
11424;BMP180;5768;51.476;7.210;2022-09-04T00:51:52;100189.00;;;20.90
11424;BMP180;5768;51.476;7.210;2022-09-04T00:57:42;100191.00;;;20.90
11424;BMP180;5768;51.476;7.210;2022-09-04T01:09:25;100188.00;;;20.90
11424;BMP180;5768;51.476;7.210;2022-09-04T01:14:41;100189.00;;;20.90
11424;BMP180;5768;51.476;7.210;2022-09-04T01:19:57;100195.00;;;20.80
11424;BMP180;5768;51.476;7.210;2022-09-04T01:25:24;100203.00;;;20.80
11424;BMP180;5768;51.476;7.210;2022-09-04T01:30:36;100203.00;;;20.80
11424;BMP180;5768;51.476;7.210;2022-09-04T01:35:53;100203.00;;;20.80
11424;BMP180;5768;51.476;7.210;2022-09-04T01:41:05;100203.00;;;20.70
11424;BMP180;5768;51.476;7.210;2022-09-04T01:46:38;100202.00;;;20.70
11424;BMP180;5768;51.476;7.210;2022-09-04T01:51:52;100202.00;;;20.60
11424;BMP180;5768;51.476;7.210;2022-09-04T01:57:12;100205.00;;;20.60
11424;BMP180;5768;51.476;7.210;2022-09-04T02:02:27;100211.00;;;20.50
11424;BMP180;5768;51.476;7.210;2022-09-04T02:07:37;100222.00;;;20.50
11424;BMP180;5768;51.476;7.210;2022-09-04T02:12:54;100222.00;;;20.40
11424;BMP180;5768;51.476;7.210;2022-09-04T02:18:10;100233.00;;;20.30
11424;BMP180;5768;51.476;7.210;2022-09-04T02:23:20;100237.00;;;20.30
11424;BMP180;5768;51.476;7.210;2022-09-04T02:28:39;100244.00;;;20.20
11424;BMP180;5768;51.476;7.210;2022-09-04T02:33:53;100244.00;;;20.20
11424;BMP180;5768;51.476;7.210;2022-09-04T02:39:11;100244.00;;;20.20
11424;BMP180;5768;51.476;7.210;2022-09-04T02:44:32;100244.00;;;20.10
11424;BMP180;5768;51.476;7.210;2022-09-04T02:49:50;100248.00;;;20.00
11424;BMP180;5768;51.476;7.210;2022-09-04T02:55:13;100256.00;;;20.00
11424;BMP180;5768;51.476;7.210;2022-09-04T03:00:19;100259.00;;;20.00
11424;BMP180;5768;51.476;7.210;2022-09-04T03:05:29;100267.00;;;19.90
11424;BMP180;5768;51.476;7.210;2022-09-04T03:10:39;100270.00;;;19.80
11424;BMP180;5768;51.476;7.210;2022-09-04T03:15:49;100271.00;;;19.80
11424;BMP180;5768;51.476;7.210;2022-09-04T03:21:00;100276.00;;;19.80
11424;BMP180;5768;51.476;7.210;2022-09-04T03:26:21;100274.00;;;19.80
11424;BMP180;5768;51.476;7.210;2022-09-04T03:31:30;100267.00;;;19.80
11424;BMP180;5768;51.476;7.210;2022-09-04T03:36:45;100276.00;;;19.80
11424;BMP180;5768;51.476;7.210;2022-09-04T03:42:00;100274.00;;;19.70
11424;BMP180;5768;51.476;7.210;2022-09-04T03:47:18;100276.00;;;19.70
11424;BMP180;5768;51.476;7.210;2022-09-04T03:52:35;100278.00;;;19.70
11424;BMP180;5768;51.476;7.210;2022-09-04T03:57:53;100286.00;;;19.60
11424;BMP180;5768;51.476;7.210;2022-09-04T04:03:20;100288.00;;;19.60
11424;BMP180;5768;51.476;7.210;2022-09-04T04:08:57;100288.00;;;19.60
11424;BMP180;5768;51.476;7.210;2022-09-04T04:14:36;100284.00;;;19.60
11424;BMP180;5768;51.476;7.210;2022-09-04T04:20:01;100287.00;;;19.50
11424;BMP180;5768;51.476;7.210;2022-09-04T04:30:50;100304.00;;;19.50
11424;BMP180;5768;51.476;7.210;2022-09-04T04:36:03;100295.00;;;19.50
11424;BMP180;5768;51.476;7.210;2022-09-04T04:41:37;100297.00;;;19.50
11424;BMP180;5768;51.476;7.210;2022-09-04T04:47:11;100309.00;;;19.50
11424;BMP180;5768;51.476;7.210;2022-09-04T04:52:44;100321.00;;;19.50
11424;BMP180;5768;51.476;7.210;2022-09-04T04:58:20;100337.00;;;19.50
11424;BMP180;5768;51.476;7.210;2022-09-04T05:03:41;100336.00;;;19.60
11424;BMP180;5768;51.476;7.210;2022-09-04T05:08:56;100326.00;;;19.60
11424;BMP180;5768;51.476;7.210;2022-09-04T05:14:16;100340.00;;;19.60
11424;BMP180;5768;51.476;7.210;2022-09-04T05:19:31;100355.00;;;19.70
11424;BMP180;5768;51.476;7.210;2022-09-04T05:24:46;100363.00;;;19.80
11424;BMP180;5768;51.476;7.210;2022-09-04T05:30:00;100367.00;;;19.90
11424;BMP180;5768;51.476;7.210;2022-09-04T05:35:15;100369.00;;;20.00
11424;BMP180;5768;51.476;7.210;2022-09-04T05:40:27;100382.00;;;20.20
11424;BMP180;5768;51.476;7.210;2022-09-04T05:45:47;100393.00;;;20.30
11424;BMP180;5768;51.476;7.210;2022-09-04T05:51:23;100401.00;;;20.40
11424;BMP180;5768;51.476;7.210;2022-09-04T06:03:02;100413.00;;;20.70
11424;BMP180;5768;51.476;7.210;2022-09-04T06:08:25;100418.00;;;20.90
11424;BMP180;5768;51.476;7.210;2022-09-04T06:14:07;100422.00;;;21.00
11424;BMP180;5768;51.476;7.210;2022-09-04T06:19:42;100420.00;;;21.20
11424;BMP180;5768;51.476;7.210;2022-09-04T06:25:13;100424.00;;;21.30
11424;BMP180;5768;51.476;7.210;2022-09-04T06:30:17;100430.00;;;21.40
11424;BMP180;5768;51.476;7.210;2022-09-04T06:35:35;100432.00;;;21.50
11424;BMP180;5768;51.476;7.210;2022-09-04T06:41:00;100438.00;;;21.70
11424;BMP180;5768;51.476;7.210;2022-09-04T06:46:20;100437.00;;;21.80
11424;BMP180;5768;51.476;7.210;2022-09-04T06:51:48;100448.00;;;21.90
11424;BMP180;5768;51.476;7.210;2022-09-04T06:57:14;100452.00;;;22.10
11424;BMP180;5768;51.476;7.210;2022-09-04T07:02:47;100446.00;;;22.20
11424;BMP180;5768;51.476;7.210;2022-09-04T07:08:08;100454.00;;;22.40
11424;BMP180;5768;51.476;7.210;2022-09-04T07:13:44;100461.00;;;22.60
11424;BMP180;5768;51.476;7.210;2022-09-04T07:25:10;100458.00;;;23.00
11424;BMP180;5768;51.476;7.210;2022-09-04T07:30:15;100458.00;;;23.00
11424;BMP180;5768;51.476;7.210;2022-09-04T07:35:28;100476.00;;;23.20
11424;BMP180;5768;51.476;7.210;2022-09-04T07:40:41;100470.00;;;23.30
11424;BMP180;5768;51.476;7.210;2022-09-04T07:45:51;100481.00;;;23.50
11424;BMP180;5768;51.476;7.210;2022-09-04T07:51:05;100493.00;;;23.60
11424;BMP180;5768;51.476;7.210;2022-09-04T07:56:24;100489.00;;;23.70
11424;BMP180;5768;51.476;7.210;2022-09-04T08:01:52;100504.00;;;23.90
11424;BMP180;5768;51.476;7.210;2022-09-04T08:07:02;100507.00;;;24.10
11424;BMP180;5768;51.476;7.210;2022-09-04T08:12:32;100508.00;;;24.20
11424;BMP180;5768;51.476;7.210;2022-09-04T08:18:08;100509.00;;;24.40
11424;BMP180;5768;51.476;7.210;2022-09-04T08:29:25;100516.00;;;24.70
11424;BMP180;5768;51.476;7.210;2022-09-04T08:35:04;100515.00;;;25.00
11424;BMP180;5768;51.476;7.210;2022-09-04T08:58:42;100526.00;;;25.30
11424;BMP180;5768;51.476;7.210;2022-09-04T09:04:38;100537.00;;;25.40
11424;BMP180;5768;51.476;7.210;2022-09-04T09:10:27;100535.00;;;25.70
11424;BMP180;5768;51.476;7.210;2022-09-04T09:16:00;100537.00;;;25.90
11424;BMP180;5768;51.476;7.210;2022-09-04T09:21:26;100547.00;;;26.00
11424;BMP180;5768;51.476;7.210;2022-09-04T09:26:46;100536.00;;;26.10
11424;BMP180;5768;51.476;7.210;2022-09-04T09:32:54;100533.00;;;26.20
11424;BMP180;5768;51.476;7.210;2022-09-04T09:38:37;100537.00;;;26.30
11424;BMP180;5768;51.476;7.210;2022-09-04T09:44:33;100533.00;;;26.50
11424;BMP180;5768;51.476;7.210;2022-09-04T09:50:19;100531.00;;;26.60
11424;BMP180;5768;51.476;7.210;2022-09-04T09:55:56;100527.00;;;26.70
11424;BMP180;5768;51.476;7.210;2022-09-04T10:01:25;100531.00;;;26.90
11424;BMP180;5768;51.476;7.210;2022-09-04T10:19:08;100533.00;;;27.50
11424;BMP180;5768;51.476;7.210;2022-09-04T10:25:02;100535.00;;;27.90
11424;BMP180;5768;51.476;7.210;2022-09-04T10:30:17;100534.00;;;28.20
11424;BMP180;5768;51.476;7.210;2022-09-04T10:35:22;100530.00;;;28.30
11424;BMP180;5768;51.476;7.210;2022-09-04T10:40:38;100536.00;;;28.50
11424;BMP180;5768;51.476;7.210;2022-09-04T10:45:53;100528.00;;;28.50
11424;BMP180;5768;51.476;7.210;2022-09-04T10:57:31;100544.00;;;28.60
11424;BMP180;5768;51.476;7.210;2022-09-04T11:09:07;100532.00;;;29.30
11424;BMP180;5768;51.476;7.210;2022-09-04T11:20:42;100535.00;;;30.20
11424;BMP180;5768;51.476;7.210;2022-09-04T11:32:21;100525.00;;;30.70
11424;BMP180;5768;51.476;7.210;2022-09-04T11:38:01;100528.00;;;30.60
11424;BMP180;5768;51.476;7.210;2022-09-04T11:43:33;100527.00;;;30.70
11424;BMP180;5768;51.476;7.210;2022-09-04T11:49:14;100527.00;;;30.50
11424;BMP180;5768;51.476;7.210;2022-09-04T11:54:58;100533.00;;;30.80
11424;BMP180;5768;51.476;7.210;2022-09-04T12:00:11;100535.00;;;31.10
11424;BMP180;5768;51.476;7.210;2022-09-04T12:05:23;100533.00;;;31.20
11424;BMP180;5768;51.476;7.210;2022-09-04T12:11:04;100545.00;;;31.40
11424;BMP180;5768;51.476;7.210;2022-09-04T12:16:59;100538.00;;;31.90
11424;BMP180;5768;51.476;7.210;2022-09-04T12:22:41;100544.00;;;32.40
11424;BMP180;5768;51.476;7.210;2022-09-04T12:34:07;100548.00;;;33.00
11424;BMP180;5768;51.476;7.210;2022-09-04T12:45:40;100553.00;;;34.30
11424;BMP180;5768;51.476;7.210;2022-09-04T12:50:53;100554.00;;;34.80
11424;BMP180;5768;51.476;7.210;2022-09-04T12:56:05;100558.00;;;33.70
11424;BMP180;5768;51.476;7.210;2022-09-04T13:01:24;100549.00;;;34.30
11424;BMP180;5768;51.476;7.210;2022-09-04T13:06:39;100553.00;;;36.00
11424;BMP180;5768;51.476;7.210;2022-09-04T13:12:03;100555.00;;;37.70
11424;BMP180;5768;51.476;7.210;2022-09-04T13:17:20;100567.00;;;39.80
11424;BMP180;5768;51.476;7.210;2022-09-04T13:22:40;100565.00;;;40.60
11424;BMP180;5768;51.476;7.210;2022-09-04T13:28:02;100564.00;;;38.80
11424;BMP180;5768;51.476;7.210;2022-09-04T13:33:31;100567.00;;;40.90
11424;BMP180;5768;51.476;7.210;2022-09-04T13:39:20;100559.00;;;41.80
11424;BMP180;5768;51.476;7.210;2022-09-04T13:44:55;100560.00;;;41.20
11424;BMP180;5768;51.476;7.210;2022-09-04T13:50:10;100558.00;;;41.10
11424;BMP180;5768;51.476;7.210;2022-09-04T13:55:21;100564.00;;;38.50
11424;BMP180;5768;51.476;7.210;2022-09-04T14:00:25;100574.00;;;37.20
11424;BMP180;5768;51.476;7.210;2022-09-04T14:05:33;100569.00;;;36.60
11424;BMP180;5768;51.476;7.210;2022-09-04T14:10:59;100566.00;;;37.10
11424;BMP180;5768;51.476;7.210;2022-09-04T14:16:07;100571.00;;;39.40
11424;BMP180;5768;51.476;7.210;2022-09-04T14:21:24;100574.00;;;39.70
11424;BMP180;5768;51.476;7.210;2022-09-04T14:26:40;100578.00;;;39.00
11424;BMP180;5768;51.476;7.210;2022-09-04T14:31:54;100566.00;;;37.30
11424;BMP180;5768;51.476;7.210;2022-09-04T14:37:22;100568.00;;;35.80
11424;BMP180;5768;51.476;7.210;2022-09-04T14:42:43;100565.00;;;35.00
11424;BMP180;5768;51.476;7.210;2022-09-04T14:47:50;100566.00;;;34.80
11424;BMP180;5768;51.476;7.210;2022-09-04T14:52:59;100574.00;;;34.50
11424;BMP180;5768;51.476;7.210;2022-09-04T14:58:11;100569.00;;;34.80
11424;BMP180;5768;51.476;7.210;2022-09-04T15:03:25;100573.00;;;34.90
11424;BMP180;5768;51.476;7.210;2022-09-04T15:08:32;100572.00;;;34.60
11424;BMP180;5768;51.476;7.210;2022-09-04T15:13:51;100576.00;;;34.40
11424;BMP180;5768;51.476;7.210;2022-09-04T15:19:02;100571.00;;;34.70
11424;BMP180;5768;51.476;7.210;2022-09-04T15:24:19;100570.00;;;34.70
11424;BMP180;5768;51.476;7.210;2022-09-04T15:29:32;100569.00;;;34.60
11424;BMP180;5768;51.476;7.210;2022-09-04T15:34:38;100567.00;;;34.50
11424;BMP180;5768;51.476;7.210;2022-09-04T15:39:53;100563.00;;;34.70
11424;BMP180;5768;51.476;7.210;2022-09-04T15:44:59;100571.00;;;37.30
11424;BMP180;5768;51.476;7.210;2022-09-04T15:50:18;100568.00;;;38.80
11424;BMP180;5768;51.476;7.210;2022-09-04T15:55:26;100574.00;;;39.80
11424;BMP180;5768;51.476;7.210;2022-09-04T16:00:36;100572.00;;;40.90
11424;BMP180;5768;51.476;7.210;2022-09-04T16:05:43;100565.00;;;40.70
11424;BMP180;5768;51.476;7.210;2022-09-04T16:10:59;100576.00;;;39.70
11424;BMP180;5768;51.476;7.210;2022-09-04T16:16:09;100569.00;;;38.90
11424;BMP180;5768;51.476;7.210;2022-09-04T16:21:23;100571.00;;;37.90
11424;BMP180;5768;51.476;7.210;2022-09-04T16:26:32;100574.00;;;37.60
11424;BMP180;5768;51.476;7.210;2022-09-04T16:31:35;100576.00;;;37.40
11424;BMP180;5768;51.476;7.210;2022-09-04T16:36:49;100578.00;;;37.40
11424;BMP180;5768;51.476;7.210;2022-09-04T16:42:10;100576.00;;;37.40
11424;BMP180;5768;51.476;7.210;2022-09-04T16:47:22;100572.00;;;36.50
11424;BMP180;5768;51.476;7.210;2022-09-04T16:52:43;100576.00;;;35.40
11424;BMP180;5768;51.476;7.210;2022-09-04T16:58:03;100577.00;;;34.80
11424;BMP180;5768;51.476;7.210;2022-09-04T17:03:19;100579.00;;;34.40
11424;BMP180;5768;51.476;7.210;2022-09-04T17:08:31;100580.00;;;34.10
11424;BMP180;5768;51.476;7.210;2022-09-04T17:13:44;100582.00;;;33.70
11424;BMP180;5768;51.476;7.210;2022-09-04T17:18:51;100579.00;;;33.50
11424;BMP180;5768;51.476;7.210;2022-09-04T17:23:58;100571.00;;;33.30
11424;BMP180;5768;51.476;7.210;2022-09-04T17:29:08;100570.00;;;33.10
11424;BMP180;5768;51.476;7.210;2022-09-04T17:34:40;100562.00;;;32.80
11424;BMP180;5768;51.476;7.210;2022-09-04T17:39:52;100570.00;;;32.60
11424;BMP180;5768;51.476;7.210;2022-09-04T17:45:10;100563.00;;;32.20
11424;BMP180;5768;51.476;7.210;2022-09-04T17:50:18;100563.00;;;31.80
11424;BMP180;5768;51.476;7.210;2022-09-04T17:55:24;100560.00;;;31.40
11424;BMP180;5768;51.476;7.210;2022-09-04T18:00:33;100566.00;;;31.00
11424;BMP180;5768;51.476;7.210;2022-09-04T18:05:42;100561.00;;;30.60
11424;BMP180;5768;51.476;7.210;2022-09-04T18:10:54;100569.00;;;30.20
11424;BMP180;5768;51.476;7.210;2022-09-04T18:16:18;100580.00;;;29.80
11424;BMP180;5768;51.476;7.210;2022-09-04T18:21:35;100576.00;;;29.50
11424;BMP180;5768;51.476;7.210;2022-09-04T18:26:51;100580.00;;;29.10
11424;BMP180;5768;51.476;7.210;2022-09-04T18:32:04;100592.00;;;28.80
11424;BMP180;5768;51.476;7.210;2022-09-04T18:37:17;100601.00;;;28.60
11424;BMP180;5768;51.476;7.210;2022-09-04T18:42:29;100608.00;;;28.30
11424;BMP180;5768;51.476;7.210;2022-09-04T18:47:46;100607.00;;;28.10
11424;BMP180;5768;51.476;7.210;2022-09-04T18:52:57;100611.00;;;27.90
11424;BMP180;5768;51.476;7.210;2022-09-04T18:58:43;100618.00;;;27.70
11424;BMP180;5768;51.476;7.210;2022-09-04T19:03:55;100623.00;;;27.50
11424;BMP180;5768;51.476;7.210;2022-09-04T19:09:08;100629.00;;;27.30
11424;BMP180;5768;51.476;7.210;2022-09-04T19:14:16;100629.00;;;27.20
11424;BMP180;5768;51.476;7.210;2022-09-04T19:19:26;100637.00;;;27.00
11424;BMP180;5768;51.476;7.210;2022-09-04T19:24:38;100642.00;;;26.90
11424;BMP180;5768;51.476;7.210;2022-09-04T19:29:56;100640.00;;;26.80
11424;BMP180;5768;51.476;7.210;2022-09-04T19:35:13;100634.00;;;26.60
11424;BMP180;5768;51.476;7.210;2022-09-04T19:40:24;100630.00;;;26.40
11424;BMP180;5768;51.476;7.210;2022-09-04T19:45:36;100637.00;;;26.30
11424;BMP180;5768;51.476;7.210;2022-09-04T19:50:46;100638.00;;;26.20
11424;BMP180;5768;51.476;7.210;2022-09-04T19:55:55;100629.00;;;26.10
11424;BMP180;5768;51.476;7.210;2022-09-04T20:01:04;100640.00;;;26.00
11424;BMP180;5768;51.476;7.210;2022-09-04T20:06:21;100638.00;;;25.90
11424;BMP180;5768;51.476;7.210;2022-09-04T20:11:31;100645.00;;;25.80
11424;BMP180;5768;51.476;7.210;2022-09-04T20:16:40;100651.00;;;25.60
11424;BMP180;5768;51.476;7.210;2022-09-04T20:21:49;100646.00;;;25.60
11424;BMP180;5768;51.476;7.210;2022-09-04T20:26:59;100655.00;;;25.50
11424;BMP180;5768;51.476;7.210;2022-09-04T20:32:15;100648.00;;;25.40
11424;BMP180;5768;51.476;7.210;2022-09-04T20:37:31;100650.00;;;25.30
11424;BMP180;5768;51.476;7.210;2022-09-04T20:42:48;100654.00;;;25.20
11424;BMP180;5768;51.476;7.210;2022-09-04T20:48:03;100662.00;;;25.00
11424;BMP180;5768;51.476;7.210;2022-09-04T20:53:21;100649.00;;;24.90
11424;BMP180;5768;51.476;7.210;2022-09-04T20:58:41;100656.00;;;24.90
11424;BMP180;5768;51.476;7.210;2022-09-04T21:04:02;100656.00;;;24.80
11424;BMP180;5768;51.476;7.210;2022-09-04T21:09:30;100659.00;;;24.70
11424;BMP180;5768;51.476;7.210;2022-09-04T21:14:38;100654.00;;;24.60
11424;BMP180;5768;51.476;7.210;2022-09-04T21:25:49;100664.00;;;24.50
11424;BMP180;5768;51.476;7.210;2022-09-04T21:31:15;100669.00;;;24.40
11424;BMP180;5768;51.476;7.210;2022-09-04T21:36:28;100660.00;;;24.40
11424;BMP180;5768;51.476;7.210;2022-09-04T21:41:54;100658.00;;;24.30
11424;BMP180;5768;51.476;7.210;2022-09-04T21:47:29;100668.00;;;24.30
11424;BMP180;5768;51.476;7.210;2022-09-04T21:53:00;100674.00;;;24.20
11424;BMP180;5768;51.476;7.210;2022-09-04T21:58:51;100680.00;;;24.10
11424;BMP180;5768;51.476;7.210;2022-09-04T22:04:08;100664.00;;;24.10
11424;BMP180;5768;51.476;7.210;2022-09-04T22:09:28;100675.00;;;24.00
11424;BMP180;5768;51.476;7.210;2022-09-04T22:14:38;100680.00;;;23.90
11424;BMP180;5768;51.476;7.210;2022-09-04T22:25:44;100674.00;;;23.90
11424;BMP180;5768;51.476;7.210;2022-09-04T22:43:23;100679.00;;;23.70
11424;BMP180;5768;51.476;7.210;2022-09-04T22:49:05;100678.00;;;23.70
11424;BMP180;5768;51.476;7.210;2022-09-04T22:54:44;100674.00;;;23.60
11424;BMP180;5768;51.476;7.210;2022-09-04T23:00:07;100676.00;;;23.60
11424;BMP180;5768;51.476;7.210;2022-09-04T23:05:40;100673.00;;;23.50
11424;BMP180;5768;51.476;7.210;2022-09-04T23:10:58;100680.00;;;23.50
11424;BMP180;5768;51.476;7.210;2022-09-04T23:16:52;100682.00;;;23.50
11424;BMP180;5768;51.476;7.210;2022-09-04T23:22:05;100678.00;;;23.40
11424;BMP180;5768;51.476;7.210;2022-09-04T23:27:25;100676.00;;;23.40
11424;BMP180;5768;51.476;7.210;2022-09-04T23:38:53;100683.00;;;23.30
11424;BMP180;5768;51.476;7.210;2022-09-04T23:44:50;100671.00;;;23.30
11424;BMP180;5768;51.476;7.210;2022-09-04T23:50:04;100671.00;;;23.20
11424;BMP180;5768;51.476;7.210;2022-09-04T23:55:28;100671.00;;;23.20
